Terminal Aerodrome Forecast
Issued by NWS Omaha/Valley, NE

Home | Current Version | Previous Version | Graphics & Text | Print | Product List | Glossary On
Versions: 1 2 3 4 5 6 7 8 9 10 11 12 13 14 15 16
000
FTUS43 KOAX 091121
TAFOFK
TAF
KOFK 091121Z 0912/1012 33010KT P6SM SCT025
      TEMPO 0912/0916 BKN020
     FM091600 33012KT P6SM SCT250
     FM092300 26006KT P6SM FEW150=

USA.gov is the U.S. government's official web portal to all federal, state and local government web resources and services.